createdAt,value
2022-08-23T00:00:01.195Z,64.04
2022-08-23T00:05:31.428Z,63.03
2022-08-23T00:10:34.412Z,62.94
2022-08-23T00:15:37.895Z,62.62
2022-08-23T00:20:40.633Z,61.77
2022-08-23T00:25:43.934Z,62.30
2022-08-23T00:30:46.713Z,62.81
2022-08-23T00:35:49.978Z,62.85
2022-08-23T00:40:53.933Z,62.96
2022-08-23T00:46:33.574Z,63.23
2022-08-23T00:51:57.765Z,63.05
2022-08-23T00:57:05.672Z,62.61
2022-08-23T01:02:09.956Z,62.41
2022-08-23T01:07:19.609Z,61.96
2022-08-23T01:12:35.516Z,62.14
2022-08-23T01:17:46.573Z,61.92
2022-08-23T01:22:59.018Z,62.50
2022-08-23T01:28:01.991Z,63.66
2022-08-23T01:33:07.426Z,63.68
2022-08-23T01:38:11.685Z,64.01
2022-08-23T01:43:15.509Z,63.85
2022-08-23T01:48:18.907Z,64.04
2022-08-23T01:53:21.578Z,64.20
2022-08-23T01:58:24.781Z,63.44
2022-08-23T02:03:29.718Z,63.81
2022-08-23T02:08:52.463Z,63.84
2022-08-23T02:13:58.934Z,64.46
2022-08-23T02:19:06.078Z,64.23
2022-08-23T02:24:22.086Z,64.54
2022-08-23T02:29:29.671Z,64.89
2022-08-23T02:34:32.544Z,64.33
2022-08-23T02:39:38.774Z,64.64
2022-08-23T02:44:42.102Z,64.07
2022-08-23T02:49:44.858Z,63.95
2022-08-23T02:54:50.589Z,64.08
2022-08-23T02:59:56.016Z,64.06
2022-08-23T03:04:59.319Z,64.35
2022-08-23T03:10:02.476Z,64.58
2022-08-23T03:15:06.889Z,64.38
2022-08-23T03:20:11.241Z,62.66
2022-08-23T03:25:13.925Z,64.41
2022-08-23T03:30:19.935Z,64.70
2022-08-23T03:35:23.022Z,65.37
2022-08-23T03:40:26.114Z,65.07
2022-08-23T03:45:29.759Z,65.30
2022-08-23T03:50:32.533Z,65.58
2022-08-23T03:55:38.502Z,65.89
2022-08-23T04:00:45.320Z,66.31
2022-08-23T04:05:48.548Z,65.68
2022-08-23T04:10:51.304Z,65.60
2022-08-23T04:15:55.231Z,66.27
2022-08-23T04:21:01.517Z,66.52
2022-08-23T04:26:05.923Z,66.21
2022-08-23T04:31:12.556Z,65.37
2022-08-23T04:36:15.281Z,65.18
2022-08-23T04:41:37.591Z,64.58
2022-08-23T04:46:40.917Z,63.42
2022-08-23T04:51:43.829Z,63.58
2022-08-23T04:56:56.682Z,64.34
2022-08-23T05:01:59.489Z,64.45
2022-08-23T05:07:02.701Z,64.01
2022-08-23T05:12:05.794Z,63.54
2022-08-23T05:17:08.509Z,63.24
2022-08-23T05:22:12.537Z,62.81
2022-08-23T05:27:16.186Z,62.11
2022-08-23T05:32:19.160Z,61.64
2022-08-23T05:37:21.913Z,62.06
2022-08-23T05:42:24.705Z,62.51
2022-08-23T05:47:28.279Z,62.65
2022-08-23T05:52:36.678Z,62.61
2022-08-23T05:57:39.674Z,62.41
2022-08-23T06:02:43.084Z,62.11
2022-08-23T06:07:45.863Z,61.47
2022-08-23T06:12:49.108Z,61.45
2022-08-23T06:17:51.883Z,61.42
2022-08-23T06:22:54.662Z,61.05
2022-08-23T06:27:58.892Z,60.32
2022-08-23T06:33:02.956Z,59.94
2022-08-23T06:38:06.966Z,64.13
2022-08-23T06:43:09.968Z,62.58
2022-08-23T06:48:17.022Z,60.29
2022-08-23T06:53:21.453Z,62.85
2022-08-23T06:58:25.422Z,61.80
2022-08-23T07:03:28.655Z,59.84
2022-08-23T07:08:31.452Z,61.51
2022-08-23T07:13:34.605Z,64.19
2022-08-23T07:18:37.680Z,61.79
2022-08-23T07:23:42.836Z,59.78
2022-08-23T07:28:50.334Z,62.66
2022-08-23T07:33:58.859Z,61.41
2022-08-23T07:39:04.549Z,59.27
2022-08-23T07:44:10.186Z,61.80
2022-08-23T07:49:13.672Z,62.37
2022-08-23T07:54:18.376Z,61.29
2022-08-23T07:59:21.087Z,59.85
2022-08-23T08:04:23.765Z,58.67
2022-08-23T08:09:26.611Z,62.08
2022-08-23T08:14:29.718Z,61.55
2022-08-23T08:19:32.521Z,58.70
2022-08-23T08:24:35.795Z,61.49
2022-08-23T08:29:38.695Z,61.74
2022-08-23T08:34:42.122Z,58.72
2022-08-23T08:39:48.013Z,54.95
2022-08-23T08:45:05.656Z,51.96
2022-08-23T08:50:14.562Z,47.00
2022-08-23T08:55:32.077Z,43.64
2022-08-23T09:00:39.237Z,43.03
2022-08-23T09:05:56.393Z,42.84
2022-08-23T09:11:24.157Z,41.60
2022-08-23T09:16:41.819Z,39.68
2022-08-23T09:21:49.776Z,36.74
2022-08-23T09:26:54.034Z,35.71
2022-08-23T09:32:02.344Z,34.17
2022-08-23T09:37:18.009Z,33.54
2022-08-23T09:42:35.982Z,32.60
2022-08-23T09:47:44.869Z,31.66
2022-08-23T09:52:48.741Z,32.45
2022-08-23T09:57:52.108Z,32.30
2022-08-23T10:02:57.997Z,31.47
2022-08-23T10:08:02.624Z,31.44
2022-08-23T10:13:06.240Z,30.76
2022-08-23T10:18:29.081Z,29.59
2022-08-23T10:23:56.427Z,30.49
2022-08-23T10:29:23.254Z,31.47
2022-08-23T10:34:31.748Z,32.60
2022-08-23T10:40:03.518Z,34.24
2022-08-23T10:45:30.586Z,34.45
2022-08-23T10:50:43.067Z,34.29
2022-08-23T10:56:15.629Z,34.18
2022-08-23T11:01:44.247Z,35.36
2022-08-23T11:06:55.550Z,34.72
2022-08-23T11:12:23.668Z,32.89
2022-08-23T11:17:48.382Z,32.33
2022-08-23T11:22:57.411Z,31.95
2022-08-23T11:28:22.127Z,30.51
2022-08-23T11:33:31.492Z,29.56
2022-08-23T11:38:49.337Z,28.17
2022-08-23T11:44:07.825Z,28.28
2022-08-23T11:49:28.927Z,27.47
2022-08-23T11:54:56.832Z,27.29
2022-08-23T12:00:28.633Z,26.30
2022-08-23T12:05:35.411Z,26.81
2022-08-23T12:10:38.073Z,26.60
2022-08-23T12:16:16.917Z,26.25
2022-08-23T12:21:43.987Z,26.03
2022-08-23T12:27:11.429Z,25.94
2022-08-23T12:32:37.917Z,25.88
2022-08-23T12:37:56.881Z,25.93
2022-08-23T12:43:23.112Z,26.04
2022-08-23T12:48:30.216Z,26.30
2022-08-23T12:53:38.520Z,27.39
2022-08-23T12:58:52.515Z,29.61
2022-08-23T13:04:06.321Z,32.34
2022-08-23T13:09:22.659Z,35.04
2022-08-23T13:14:26.733Z,37.11
2022-08-23T13:19:34.118Z,40.49
2022-08-23T13:24:40.422Z,42.60
2022-08-23T13:29:52.317Z,43.75
2022-08-23T13:34:56.710Z,45.22
2022-08-23T13:40:14.281Z,46.74
2022-08-23T13:45:25.532Z,47.69
2022-08-23T13:50:35.291Z,48.86
2022-08-23T13:55:46.461Z,49.94
2022-08-23T14:00:55.303Z,53.16
2022-08-23T14:05:58.386Z,55.31
2022-08-23T14:11:01.492Z,65.60
2022-08-23T14:21:32.327Z,67.66
2022-08-23T14:26:35.302Z,69.21
2022-08-23T14:31:38.245Z,70.33
2022-08-23T14:38:00.239Z,68.87
2022-08-23T14:42:07.989Z,70.29
2022-08-23T14:47:11.529Z,69.97
2022-08-23T14:52:15.626Z,67.54
2022-08-23T14:57:18.418Z,70.99
2022-08-23T15:02:24.823Z,71.78
2022-08-23T15:07:27.762Z,71.90
2022-08-23T15:17:57.627Z,71.86
2022-08-23T15:23:01.012Z,70.67
2022-08-23T15:28:12.204Z,73.05
2022-08-23T15:33:16.040Z,73.02
2022-08-23T15:38:22.968Z,72.97
2022-08-23T15:43:34.104Z,72.86
2022-08-23T15:48:44.736Z,71.59
2022-08-23T15:53:47.877Z,71.13
2022-08-23T15:58:54.114Z,69.35
2022-08-23T16:03:57.562Z,68.54
2022-08-23T16:09:00.871Z,70.63
2022-08-23T16:14:03.901Z,71.79
2022-08-23T16:19:08.918Z,71.66
2022-08-23T16:24:12.028Z,70.61
2022-08-23T16:29:18.222Z,70.04
2022-08-23T16:34:21.061Z,69.98
2022-08-23T16:39:24.475Z,71.03
2022-08-23T16:44:28.590Z,70.37
2022-08-23T16:49:34.378Z,68.39
2022-08-23T16:54:37.993Z,68.67
2022-08-23T16:59:40.796Z,69.54
2022-08-23T17:04:43.507Z,71.70
2022-08-23T17:09:47.221Z,71.98
2022-08-23T17:14:51.512Z,70.44
2022-08-23T17:19:54.312Z,69.70
2022-08-23T17:24:57.616Z,70.80
2022-08-23T17:30:00.835Z,72.53
2022-08-23T17:35:03.871Z,72.36
2022-08-23T17:40:10.840Z,72.49
2022-08-23T17:45:16.538Z,73.50
2022-08-23T17:50:20.780Z,71.30
2022-08-23T17:55:24.853Z,73.52
2022-08-23T18:00:28.726Z,73.01
2022-08-23T18:05:33.398Z,71.86
2022-08-23T18:10:36.671Z,71.50
2022-08-23T18:15:39.657Z,71.38
2022-08-23T18:20:42.399Z,69.64
2022-08-23T18:25:45.922Z,68.98
2022-08-23T18:30:54.730Z,70.30
2022-08-23T18:35:57.530Z,69.54
2022-08-23T18:41:00.273Z,71.97
2022-08-23T18:46:03.121Z,71.80
2022-08-23T18:51:16.301Z,72.43
2022-08-23T18:56:21.283Z,72.81
2022-08-23T19:01:26.757Z,72.37
2022-08-23T19:06:30.344Z,71.31
2022-08-23T19:11:33.653Z,72.71
2022-08-23T19:16:37.249Z,72.28
2022-08-23T19:21:40.267Z,71.23
2022-08-23T19:26:47.793Z,71.07
2022-08-23T19:31:50.768Z,72.12
2022-08-23T19:37:00.778Z,72.25
2022-08-23T19:42:11.458Z,72.27
2022-08-23T19:47:17.693Z,71.85
2022-08-23T19:52:23.046Z,71.02
2022-08-23T19:57:28.110Z,70.71
2022-08-23T20:02:30.982Z,71.34
2022-08-23T20:07:36.326Z,71.53
2022-08-23T20:12:39.389Z,72.57
2022-08-23T20:17:42.312Z,72.23
2022-08-23T20:23:04.169Z,72.12
2022-08-23T20:28:08.384Z,72.39
2022-08-23T20:33:11.139Z,71.82
2022-08-23T20:38:32.753Z,71.77
2022-08-23T20:43:39.152Z,71.28
2022-08-23T20:48:41.952Z,71.45
2022-08-23T20:53:45.677Z,71.21
2022-08-23T20:58:48.493Z,70.49
2022-08-23T21:03:52.425Z,70.94
2022-08-23T21:08:57.981Z,71.16
2022-08-23T21:14:00.955Z,70.95
2022-08-23T21:19:03.921Z,71.05
2022-08-23T21:24:08.937Z,70.62
2022-08-23T21:29:11.941Z,70.94
2022-08-23T21:34:15.179Z,69.58
2022-08-23T21:39:17.980Z,70.96
2022-08-23T21:44:21.396Z,69.92
2022-08-23T21:49:24.222Z,69.77
2022-08-23T21:54:27.295Z,70.77
2022-08-23T21:59:30.088Z,71.78
2022-08-23T22:04:33.000Z,71.54
2022-08-23T22:09:36.144Z,71.23
2022-08-23T22:14:39.030Z,70.67
2022-08-23T22:19:41.766Z,70.66
2022-08-23T22:24:44.531Z,69.85
2022-08-23T22:29:47.562Z,71.25
2022-08-23T22:34:50.367Z,70.75
2022-08-23T22:39:56.388Z,71.10
2022-08-23T22:45:00.353Z,70.91
2022-08-23T22:50:04.643Z,70.68
2022-08-23T22:55:08.375Z,70.43
2022-08-23T23:00:13.693Z,71.32
2022-08-23T23:05:16.496Z,71.36
2022-08-23T23:10:19.357Z,71.09
2022-08-23T23:15:22.463Z,70.30
2022-08-23T23:20:39.330Z,70.38
2022-08-23T23:25:42.953Z,69.86
2022-08-23T23:30:48.642Z,69.53
2022-08-23T23:35:54.334Z,69.26
2022-08-23T23:40:57.088Z,68.55
2022-08-23T23:46:05.023Z,68.15
2022-08-23T23:51:13.212Z,68.33
2022-08-23T23:56:17.771Z,68.19
